createdAt,value
2023-01-07T00:01:20.628Z,100.00
2023-01-07T00:03:23.588Z,100.00
2023-01-07T00:05:26.594Z,100.00
2023-01-07T00:07:31.231Z,100.00
2023-01-07T00:09:33.219Z,100.00
2023-01-07T00:11:37.623Z,100.00
2023-01-07T00:13:40.020Z,100.00
2023-01-07T00:15:42.922Z,100.00
2023-01-07T00:17:44.893Z,100.00
2023-01-07T00:19:47.896Z,100.00
2023-01-07T00:21:49.734Z,100.00
2023-01-07T00:23:56.383Z,100.00
2023-01-07T00:26:19.144Z,100.00
2023-01-07T00:28:21.059Z,100.00
2023-01-07T00:30:25.033Z,100.00
2023-01-07T00:32:47.347Z,100.00
2023-01-07T00:34:50.275Z,100.00
2023-01-07T00:37:12.132Z,100.00
2023-01-07T00:39:19.900Z,100.00
2023-01-07T00:41:22.013Z,100.00
2023-01-07T00:43:24.052Z,100.00
2023-01-07T00:45:26.081Z,100.00
2023-01-07T00:47:27.928Z,100.00
2023-01-07T00:49:32.473Z,100.00
2023-01-07T00:51:34.310Z,100.00
2023-01-07T00:53:36.211Z,100.00
2023-01-07T00:55:38.444Z,100.00
2023-01-07T00:57:40.464Z,100.00
2023-01-07T00:59:42.472Z,100.00
2023-01-07T01:01:44.442Z,100.00
2023-01-07T01:03:46.618Z,100.00
2023-01-07T01:05:50.016Z,100.00
2023-01-07T01:07:52.246Z,100.00
2023-01-07T01:09:54.233Z,100.00
2023-01-07T01:11:56.058Z,100.00
2023-01-07T01:13:57.857Z,100.00
2023-01-07T01:15:59.814Z,100.00
2023-01-07T01:18:01.740Z,100.00
2023-01-07T01:20:04.879Z,100.00
2023-01-07T01:22:06.787Z,100.00
2023-01-07T01:24:08.770Z,100.00
2023-01-07T01:26:14.088Z,100.00
2023-01-07T01:28:15.979Z,100.00
2023-01-07T01:30:17.926Z,100.00
2023-01-07T01:32:19.779Z,100.00
2023-01-07T01:34:21.762Z,100.00
2023-01-07T01:36:24.736Z,100.00
2023-01-07T01:38:26.605Z,100.00
2023-01-07T01:40:30.310Z,100.00
2023-01-07T01:42:32.767Z,100.00
2023-01-07T01:44:56.494Z,100.00
2023-01-07T01:46:58.889Z,100.00
2023-01-07T01:49:06.303Z,100.00
2023-01-07T01:51:10.649Z,100.00
2023-01-07T01:53:22.275Z,100.00
2023-01-07T01:55:27.558Z,100.00
2023-01-07T01:57:33.001Z,100.00
2023-01-07T01:59:42.365Z,100.00
2023-01-07T02:01:44.323Z,100.00
2023-01-07T02:03:48.035Z,100.00
2023-01-07T02:05:50.329Z,100.00
2023-01-07T02:07:52.198Z,100.00
2023-01-07T02:10:19.064Z,100.00
2023-01-07T02:12:42.790Z,100.00
2023-01-07T02:14:44.590Z,100.00
2023-01-07T02:16:58.003Z,100.00
2023-01-07T02:19:27.289Z,100.00
2023-01-07T02:21:35.031Z,100.00
2023-01-07T02:24:28.685Z,100.00
2023-01-07T02:26:54.564Z,100.00
2023-01-07T02:29:10.240Z,100.00
2023-01-07T02:31:33.042Z,100.00
2023-01-07T02:33:51.247Z,100.00
2023-01-07T02:35:53.090Z,100.00
2023-01-07T02:38:04.713Z,100.00
2023-01-07T02:40:14.811Z,100.00
2023-01-07T02:42:52.115Z,100.00
2023-01-07T02:45:12.887Z,100.00
2023-01-07T02:47:24.417Z,100.00
2023-01-07T02:49:26.320Z,100.00
2023-01-07T02:51:41.079Z,100.00
2023-01-07T02:53:45.867Z,100.00
2023-01-07T02:56:11.706Z,100.00
2023-01-07T02:58:41.328Z,100.00
2023-01-07T03:00:52.012Z,100.00
2023-01-07T03:03:22.573Z,100.00
2023-01-07T03:05:34.128Z,100.00
2023-01-07T03:08:32.146Z,100.00
2023-01-07T03:10:44.101Z,100.00
2023-01-07T03:13:00.276Z,100.00
2023-01-07T03:15:13.746Z,100.00
2023-01-07T03:17:43.009Z,100.00
2023-01-07T03:19:50.138Z,100.00
2023-01-07T03:21:54.608Z,100.00
2023-01-07T03:23:57.702Z,100.00
2023-01-07T03:26:05.230Z,100.00
2023-01-07T03:28:09.848Z,100.00
2023-01-07T03:30:15.276Z,100.00
2023-01-07T03:32:18.679Z,100.00
2023-01-07T03:34:25.456Z,100.00
2023-01-07T03:36:56.515Z,100.00
2023-01-07T03:39:00.132Z,100.00
2023-01-07T03:41:02.609Z,100.00
2023-01-07T03:43:04.633Z,100.00
2023-01-07T03:45:11.634Z,100.00
2023-01-07T03:47:13.592Z,100.00
2023-01-07T03:49:16.516Z,100.00
2023-01-07T03:51:18.461Z,100.00
2023-01-07T03:53:20.410Z,100.00
2023-01-07T03:55:22.305Z,100.00
2023-01-07T03:57:24.169Z,100.00
2023-01-07T03:59:25.984Z,100.00
2023-01-07T04:01:28.047Z,100.00
2023-01-07T04:03:30.008Z,100.00
2023-01-07T04:05:31.907Z,100.00
2023-01-07T04:07:33.879Z,100.00
2023-01-07T04:09:35.846Z,100.00
2023-01-07T04:11:37.755Z,100.00
2023-01-07T04:13:40.621Z,100.00
2023-01-07T04:15:43.302Z,100.00
2023-01-07T04:17:45.337Z,100.00
2023-01-07T04:19:47.186Z,100.00
2023-01-07T04:21:55.412Z,100.00
2023-01-07T04:23:57.349Z,100.00
2023-01-07T04:25:59.237Z,100.00
2023-01-07T04:28:01.071Z,100.00
2023-01-07T04:30:03.096Z,100.00
2023-01-07T04:32:05.238Z,100.00
2023-01-07T04:34:10.243Z,100.00
2023-01-07T04:36:13.770Z,100.00
2023-01-07T04:38:15.674Z,100.00
2023-01-07T04:40:17.716Z,100.00
2023-01-07T04:42:19.553Z,100.00
2023-01-07T04:44:21.428Z,100.00
2023-01-07T04:46:24.660Z,100.00
2023-01-07T04:48:26.917Z,100.00
2023-01-07T04:50:28.756Z,100.00
2023-01-07T04:52:30.733Z,100.00
2023-01-07T04:54:32.566Z,100.00
2023-01-07T04:56:34.400Z,100.00
2023-01-07T04:58:36.316Z,100.00
2023-01-07T05:00:38.334Z,100.00
2023-01-07T05:02:40.180Z,100.00
2023-01-07T05:04:42.172Z,100.00
2023-01-07T05:06:44.114Z,100.00
2023-01-07T05:08:46.085Z,100.00
2023-01-07T05:10:51.119Z,100.00
2023-01-07T05:12:53.137Z,100.00
2023-01-07T05:14:54.997Z,100.00
2023-01-07T05:16:56.855Z,100.00
2023-01-07T05:18:58.777Z,100.00
2023-01-07T05:21:00.674Z,100.00
2023-01-07T05:23:02.588Z,100.00
2023-01-07T05:25:04.637Z,100.00
2023-01-07T05:27:06.794Z,100.00
2023-01-07T05:29:10.080Z,100.00
2023-01-07T05:31:11.957Z,100.00
2023-01-07T05:33:14.011Z,100.00
2023-01-07T05:35:15.977Z,100.00
2023-01-07T05:37:18.049Z,100.00
2023-01-07T05:39:19.861Z,100.00
2023-01-07T05:41:21.774Z,100.00
2023-01-07T05:43:24.051Z,100.00
2023-01-07T05:45:25.971Z,100.00
2023-01-07T05:47:27.865Z,100.00
2023-01-07T05:49:29.836Z,100.00
2023-01-07T05:51:31.681Z,100.00
2023-01-07T05:53:33.909Z,100.00
2023-01-07T05:55:38.727Z,100.00
2023-01-07T05:57:40.579Z,100.00
2023-01-07T05:59:43.012Z,100.00
2023-01-07T06:01:44.861Z,100.00
2023-01-07T06:03:46.855Z,100.00
2023-01-07T06:05:49.395Z,100.00
2023-01-07T06:07:51.238Z,100.00
2023-01-07T06:09:53.119Z,100.00
2023-01-07T06:11:54.964Z,100.00
2023-01-07T06:13:56.782Z,100.00
2023-01-07T06:16:07.406Z,100.00
2023-01-07T06:18:09.298Z,100.00
2023-01-07T06:20:11.792Z,100.00
2023-01-07T06:22:14.806Z,100.00
2023-01-07T06:24:16.681Z,100.00
2023-01-07T06:26:18.544Z,100.00
2023-01-07T06:28:20.689Z,100.00
2023-01-07T06:30:22.551Z,100.00
2023-01-07T06:32:24.639Z,100.00
2023-01-07T06:34:26.561Z,100.00
2023-01-07T06:36:28.490Z,100.00
2023-01-07T06:38:30.953Z,100.00
2023-01-07T06:40:33.197Z,100.00
2023-01-07T06:42:35.369Z,100.00
2023-01-07T06:44:37.170Z,100.00
2023-01-07T06:46:39.033Z,100.00
2023-01-07T06:48:40.960Z,100.00
2023-01-07T06:50:43.906Z,100.00
2023-01-07T06:52:45.853Z,100.00
2023-01-07T06:54:48.616Z,100.00
2023-01-07T06:56:50.616Z,100.00
2023-01-07T06:58:52.540Z,100.00
2023-01-07T07:00:54.401Z,100.00
2023-01-07T07:02:58.739Z,100.00
2023-01-07T07:05:00.691Z,100.00
2023-01-07T07:07:02.528Z,100.00
2023-01-07T07:09:04.401Z,100.00
2023-01-07T07:11:06.321Z,100.00
2023-01-07T07:13:08.615Z,100.00
2023-01-07T07:15:10.927Z,100.00
2023-01-07T07:17:12.786Z,100.00
2023-01-07T07:19:14.620Z,100.00
2023-01-07T07:21:16.507Z,100.00
2023-01-07T07:23:18.491Z,100.00
2023-01-07T07:25:20.588Z,100.00
2023-01-07T07:27:22.443Z,100.00
2023-01-07T07:29:24.320Z,100.00
2023-01-07T07:31:26.223Z,100.00
2023-01-07T07:33:28.174Z,100.00
2023-01-07T07:35:30.937Z,100.00
2023-01-07T07:37:32.845Z,100.00
2023-01-07T07:39:34.770Z,100.00
2023-01-07T07:41:36.590Z,100.00
2023-01-07T07:43:38.587Z,100.00
2023-01-07T07:45:43.861Z,100.00
2023-01-07T07:47:46.556Z,100.00
2023-01-07T07:49:48.468Z,100.00
2023-01-07T07:51:50.381Z,100.00
2023-01-07T07:53:52.299Z,100.00
2023-01-07T07:55:54.272Z,100.00
2023-01-07T07:57:58.569Z,100.00
2023-01-07T08:00:00.474Z,100.00
2023-01-07T08:02:02.443Z,100.00
2023-01-07T08:04:04.399Z,100.00
2023-01-07T08:06:06.838Z,100.00
2023-01-07T08:08:10.272Z,100.00
2023-01-07T08:10:12.307Z,100.00
2023-01-07T08:12:16.752Z,100.00
2023-01-07T08:14:24.223Z,100.00
2023-01-07T08:16:28.855Z,100.00
2023-01-07T08:21:28.388Z,100.00
2023-01-07T08:23:31.563Z,100.00
2023-01-07T08:25:35.151Z,100.00
2023-01-07T08:27:39.140Z,100.00
2023-01-07T08:29:41.113Z,100.00
2023-01-07T08:31:43.205Z,100.00
2023-01-07T08:33:45.144Z,100.00
2023-01-07T08:35:47.187Z,100.00
2023-01-07T08:37:49.464Z,100.00
2023-01-07T08:39:51.293Z,100.00
2023-01-07T08:41:58.610Z,100.00
2023-01-07T08:44:01.551Z,100.00
2023-01-07T08:46:03.542Z,100.00
2023-01-07T08:48:06.084Z,100.00
2023-01-07T08:50:09.414Z,100.00
2023-01-07T08:52:14.309Z,100.00
2023-01-07T08:54:20.043Z,100.00
2023-01-07T08:56:23.110Z,100.00
2023-01-07T08:58:27.505Z,100.00
2023-01-07T09:00:29.489Z,100.00
2023-01-07T09:02:31.421Z,100.00
2023-01-07T09:04:36.052Z,100.00
2023-01-07T09:06:38.037Z,100.00
2023-01-07T09:08:40.746Z,100.00
2023-01-07T09:10:43.868Z,100.00
2023-01-07T09:12:46.193Z,100.00
2023-01-07T09:14:48.287Z,100.00
2023-01-07T09:16:50.165Z,100.00
2023-01-07T09:18:52.116Z,100.00
2023-01-07T09:20:54.155Z,100.00
2023-01-07T09:22:56.091Z,100.00
2023-01-07T09:24:57.953Z,100.00
2023-01-07T09:26:59.882Z,100.00
2023-01-07T09:29:01.797Z,100.00
2023-01-07T09:31:04.527Z,100.00
2023-01-07T09:33:06.613Z,100.00
2023-01-07T09:35:08.981Z,100.00
2023-01-07T09:37:10.872Z,100.00
2023-01-07T09:39:13.292Z,100.00
2023-01-07T09:41:44.654Z,100.00
2023-01-07T09:43:59.367Z,100.00
2023-01-07T09:46:09.009Z,100.00
2023-01-07T09:48:27.068Z,100.00
2023-01-07T09:50:55.258Z,100.00
2023-01-07T09:53:03.701Z,100.00
2023-01-07T09:55:13.975Z,100.00
2023-01-07T09:57:18.127Z,100.00
2023-01-07T09:59:20.311Z,100.00
2023-01-07T10:02:00.036Z,100.00
2023-01-07T10:04:30.174Z,100.00
2023-01-07T10:06:58.499Z,100.00
2023-01-07T10:09:08.295Z,100.00
2023-01-07T10:11:49.922Z,100.00
2023-01-07T10:13:57.501Z,100.00
2023-01-07T10:16:10.626Z,100.00
2023-01-07T10:18:22.502Z,100.00
2023-01-07T10:20:50.451Z,100.00
2023-01-07T10:23:03.660Z,100.00
2023-01-07T10:25:16.265Z,100.00
2023-01-07T10:27:29.936Z,100.00
2023-01-07T10:29:37.775Z,100.00
2023-01-07T10:31:40.463Z,100.00
2023-01-07T10:33:44.105Z,100.00
2023-01-07T10:35:49.321Z,100.00
2023-01-07T10:37:52.180Z,100.00
2023-01-07T10:40:13.030Z,100.00
2023-01-07T10:42:30.037Z,100.00
2023-01-07T10:44:46.685Z,100.00
2023-01-07T10:47:19.248Z,100.00
2023-01-07T10:49:39.808Z,100.00
2023-01-07T10:52:27.100Z,100.00
2023-01-07T10:55:07.505Z,100.00
2023-01-07T10:57:24.009Z,100.00
2023-01-07T10:59:26.162Z,100.00
2023-01-07T11:01:37.568Z,100.00
2023-01-07T11:03:40.559Z,100.00
2023-01-07T11:05:42.801Z,100.00
2023-01-07T11:07:48.568Z,100.00
2023-01-07T11:09:53.079Z,99.82
2023-01-07T11:11:58.159Z,100.00
2023-01-07T11:14:07.305Z,100.00
2023-01-07T11:16:23.806Z,100.00
2023-01-07T11:18:39.689Z,99.80
2023-01-07T11:20:53.435Z,98.86
2023-01-07T11:22:55.296Z,99.32
2023-01-07T11:24:59.567Z,99.86
2023-01-07T11:27:16.618Z,98.55
2023-01-07T11:29:28.576Z,97.61
2023-01-07T11:32:04.179Z,96.29
2023-01-07T11:34:06.607Z,95.24
2023-01-07T11:36:09.133Z,95.45
2023-01-07T11:38:31.962Z,95.92
2023-01-07T11:40:33.975Z,95.56
2023-01-07T11:42:57.655Z,96.11
2023-01-07T11:45:23.576Z,95.94
2023-01-07T11:47:25.545Z,96.30
2023-01-07T11:49:30.346Z,96.74
2023-01-07T11:51:41.643Z,95.84
2023-01-07T11:53:53.302Z,96.04
2023-01-07T11:55:57.768Z,96.18
2023-01-07T11:58:28.129Z,96.14
2023-01-07T12:00:22.180Z,96.37
2023-01-07T12:02:27.406Z,96.15
2023-01-07T12:04:37.503Z,96.47
2023-01-07T12:06:42.163Z,95.91
2023-01-07T12:08:56.356Z,94.88
2023-01-07T12:11:09.284Z,95.15
2023-01-07T12:13:23.594Z,95.55
2023-01-07T12:15:37.699Z,94.04
2023-01-07T12:17:53.294Z,93.92
2023-01-07T12:20:10.402Z,93.48
2023-01-07T12:22:21.111Z,93.53
2023-01-07T12:24:50.241Z,94.33
2023-01-07T12:27:15.576Z,94.95
2023-01-07T12:29:39.464Z,95.23
2023-01-07T12:32:07.863Z,94.99
2023-01-07T12:34:19.483Z,95.61
2023-01-07T12:36:28.884Z,96.43
2023-01-07T12:38:50.660Z,96.68
2023-01-07T12:41:03.452Z,96.70
2023-01-07T12:43:15.506Z,98.10
2023-01-07T12:45:35.006Z,98.67
2023-01-07T12:47:52.841Z,98.94
2023-01-07T12:50:24.661Z,98.81
2023-01-07T12:52:51.193Z,99.33
2023-01-07T12:54:58.872Z,99.37
2023-01-07T12:57:10.484Z,99.44
2023-01-07T12:59:45.659Z,99.55
2023-01-07T13:02:04.600Z,100.00
2023-01-07T13:04:26.849Z,100.00
2023-01-07T13:06:28.951Z,100.00
2023-01-07T13:08:55.791Z,100.00
2023-01-07T13:11:20.472Z,100.00
2023-01-07T13:13:34.142Z,100.00
2023-01-07T13:15:39.745Z,100.00
2023-01-07T13:17:43.570Z,100.00
2023-01-07T13:19:45.713Z,100.00
2023-01-07T13:21:50.669Z,100.00
2023-01-07T13:24:14.768Z,100.00
2023-01-07T13:26:45.602Z,99.15
2023-01-07T13:28:55.960Z,97.89
2023-01-07T13:31:19.920Z,98.39
2023-01-07T13:33:32.517Z,97.65
2023-01-07T13:36:04.386Z,98.88
2023-01-07T13:38:09.157Z,98.92
2023-01-07T13:40:26.079Z,99.07
2023-01-07T13:42:47.155Z,99.49
2023-01-07T13:45:03.145Z,99.57
2023-01-07T13:47:08.369Z,99.84
2023-01-07T13:49:32.357Z,99.43
2023-01-07T13:51:38.342Z,100.00
2023-01-07T13:53:42.502Z,100.00
2023-01-07T13:55:50.243Z,100.00
2023-01-07T13:57:52.445Z,100.00
2023-01-07T13:59:56.744Z,100.00
2023-01-07T14:02:18.724Z,100.00
2023-01-07T14:04:34.605Z,100.00
2023-01-07T14:06:42.104Z,100.00
2023-01-07T14:08:47.476Z,100.00
2023-01-07T14:10:54.536Z,100.00
2023-01-07T14:13:35.965Z,100.00
2023-01-07T14:15:43.921Z,100.00
2023-01-07T14:18:01.717Z,100.00
2023-01-07T14:20:32.765Z,100.00
2023-01-07T14:23:12.318Z,100.00
2023-01-07T14:25:50.217Z,100.00
2023-01-07T14:28:25.397Z,100.00
2023-01-07T14:30:43.172Z,100.00
2023-01-07T14:32:45.207Z,100.00
2023-01-07T14:34:59.083Z,100.00
2023-01-07T14:37:05.245Z,100.00
2023-01-07T14:39:35.159Z,100.00
2023-01-07T14:42:15.230Z,100.00
2023-01-07T14:44:27.374Z,100.00
2023-01-07T14:46:49.247Z,100.00
2023-01-07T14:49:03.245Z,100.00
2023-01-07T14:51:34.853Z,100.00
2023-01-07T14:54:12.492Z,100.00
2023-01-07T14:56:31.867Z,100.00
2023-01-07T14:58:40.913Z,100.00
2023-01-07T15:01:05.520Z,100.00
2023-01-07T15:03:24.908Z,100.00
2023-01-07T15:05:55.464Z,100.00
2023-01-07T15:08:20.924Z,100.00
2023-01-07T15:10:49.936Z,100.00
2023-01-07T15:13:15.334Z,100.00
2023-01-07T15:15:41.228Z,100.00
2023-01-07T15:17:43.513Z,100.00
2023-01-07T15:19:45.955Z,100.00
2023-01-07T15:22:23.633Z,100.00
2023-01-07T15:24:55.043Z,100.00
2023-01-07T15:27:02.469Z,100.00
2023-01-07T15:29:20.698Z,100.00
2023-01-07T15:31:47.169Z,100.00
2023-01-07T15:33:52.294Z,100.00
2023-01-07T15:35:56.271Z,100.00
2023-01-07T15:37:59.488Z,100.00
2023-01-07T15:40:01.844Z,100.00
2023-01-07T15:42:04.139Z,100.00
2023-01-07T15:44:14.805Z,100.00
2023-01-07T15:46:17.190Z,100.00
2023-01-07T15:48:19.481Z,100.00
2023-01-07T15:50:24.748Z,100.00
2023-01-07T15:52:28.015Z,100.00
2023-01-07T15:54:38.503Z,100.00
2023-01-07T15:56:40.560Z,100.00
2023-01-07T15:58:50.409Z,100.00
2023-01-07T16:00:56.750Z,100.00
2023-01-07T16:03:03.665Z,100.00
2023-01-07T16:05:06.625Z,100.00
2023-01-07T16:07:31.504Z,100.00
2023-01-07T16:09:34.426Z,100.00
2023-01-07T16:11:36.481Z,100.00
2023-01-07T16:13:38.426Z,100.00
2023-01-07T16:15:41.561Z,100.00
2023-01-07T16:17:53.262Z,100.00
2023-01-07T16:20:25.120Z,100.00
2023-01-07T16:22:31.278Z,100.00
2023-01-07T16:24:33.738Z,100.00
2023-01-07T16:26:41.352Z,100.00
2023-01-07T16:29:00.983Z,100.00
2023-01-07T16:31:14.933Z,100.00
2023-01-07T16:33:23.261Z,100.00
2023-01-07T16:35:33.222Z,100.00
2023-01-07T16:37:40.494Z,100.00
2023-01-07T16:39:48.453Z,100.00
2023-01-07T16:41:53.944Z,100.00
2023-01-07T16:44:00.814Z,100.00
2023-01-07T16:46:29.857Z,100.00
2023-01-07T16:48:32.047Z,100.00
2023-01-07T16:50:39.994Z,100.00
2023-01-07T16:52:57.530Z,100.00
2023-01-07T16:55:01.602Z,100.00
2023-01-07T16:57:16.249Z,100.00
2023-01-07T16:59:19.670Z,100.00
2023-01-07T17:01:31.193Z,100.00
2023-01-07T17:03:53.440Z,100.00
2023-01-07T17:06:07.541Z,100.00
2023-01-07T17:08:18.947Z,100.00
2023-01-07T17:10:26.840Z,100.00
2023-01-07T17:12:36.453Z,100.00
2023-01-07T17:14:41.230Z,100.00
2023-01-07T17:16:43.643Z,100.00
2023-01-07T17:18:45.754Z,100.00
2023-01-07T17:20:52.742Z,100.00
2023-01-07T17:22:54.773Z,100.00
2023-01-07T17:25:21.728Z,100.00
2023-01-07T17:27:29.952Z,100.00
2023-01-07T17:29:42.730Z,100.00
2023-01-07T17:31:48.213Z,100.00
2023-01-07T17:33:51.780Z,100.00
2023-01-07T17:35:57.769Z,100.00
2023-01-07T17:37:59.777Z,100.00
2023-01-07T17:40:01.794Z,100.00
2023-01-07T17:42:24.386Z,100.00
2023-01-07T17:44:26.676Z,100.00
2023-01-07T17:46:30.327Z,100.00
2023-01-07T17:48:33.313Z,100.00
2023-01-07T17:50:37.289Z,100.00
2023-01-07T17:52:43.067Z,100.00
2023-01-07T17:54:47.134Z,100.00
2023-01-07T17:56:52.279Z,100.00
2023-01-07T17:58:56.143Z,100.00
2023-01-07T18:01:00.906Z,100.00
2023-01-07T18:03:03.091Z,100.00
2023-01-07T18:05:05.722Z,100.00
2023-01-07T18:07:12.967Z,100.00
2023-01-07T18:09:14.914Z,100.00
2023-01-07T18:11:43.240Z,100.00
2023-01-07T18:13:45.285Z,100.00
2023-01-07T18:15:50.193Z,100.00
2023-01-07T18:17:52.519Z,100.00
2023-01-07T18:19:55.129Z,100.00
2023-01-07T18:21:57.113Z,100.00
2023-01-07T18:23:59.215Z,100.00
2023-01-07T18:26:01.165Z,100.00
2023-01-07T18:28:04.511Z,100.00
2023-01-07T18:30:07.005Z,100.00
2023-01-07T18:32:09.042Z,100.00
2023-01-07T18:34:13.312Z,100.00
2023-01-07T18:36:16.983Z,100.00
2023-01-07T18:38:19.217Z,100.00
2023-01-07T18:40:21.584Z,100.00
2023-01-07T18:42:23.593Z,100.00
2023-01-07T18:44:25.849Z,100.00
2023-01-07T18:46:28.152Z,100.00
2023-01-07T18:48:31.212Z,100.00
2023-01-07T18:50:33.722Z,100.00
2023-01-07T18:52:41.819Z,100.00
2023-01-07T18:54:46.372Z,100.00
2023-01-07T18:56:48.403Z,100.00
2023-01-07T18:58:54.511Z,100.00
2023-01-07T19:01:02.989Z,100.00
2023-01-07T19:03:07.383Z,100.00
2023-01-07T19:05:09.544Z,100.00
2023-01-07T19:07:11.583Z,100.00
2023-01-07T19:09:18.211Z,100.00
2023-01-07T19:11:20.403Z,100.00
2023-01-07T19:13:22.561Z,100.00
2023-01-07T19:15:25.565Z,100.00
2023-01-07T19:17:28.415Z,100.00
2023-01-07T19:19:37.067Z,100.00
2023-01-07T19:21:47.459Z,100.00
2023-01-07T19:23:49.514Z,100.00
2023-01-07T19:26:03.652Z,100.00
2023-01-07T19:28:05.712Z,100.00
2023-01-07T19:30:08.327Z,100.00
2023-01-07T19:32:10.330Z,100.00
2023-01-07T19:34:13.880Z,100.00
2023-01-07T19:36:17.706Z,100.00
2023-01-07T19:38:20.522Z,100.00
2023-01-07T19:40:23.364Z,100.00
2023-01-07T19:42:25.349Z,100.00
2023-01-07T19:44:27.299Z,100.00
2023-01-07T19:46:29.460Z,100.00
2023-01-07T19:48:31.965Z,100.00
2023-01-07T19:50:34.009Z,100.00
2023-01-07T19:52:35.923Z,100.00
2023-01-07T19:54:37.898Z,100.00
2023-01-07T19:56:40.824Z,100.00
2023-01-07T19:58:42.858Z,100.00
2023-01-07T20:00:45.633Z,100.00
2023-01-07T20:02:47.711Z,100.00
2023-01-07T20:04:49.707Z,100.00
2023-01-07T20:06:51.700Z,100.00
2023-01-07T20:08:55.435Z,100.00
2023-01-07T20:10:59.281Z,100.00
2023-01-07T20:13:01.342Z,100.00
2023-01-07T20:15:06.426Z,100.00
2023-01-07T20:17:10.180Z,100.00
2023-01-07T20:19:14.014Z,100.00
2023-01-07T20:21:18.834Z,100.00
2023-01-07T20:23:26.493Z,100.00
2023-01-07T20:25:28.587Z,100.00
2023-01-07T20:27:30.466Z,100.00
2023-01-07T20:29:32.391Z,100.00
2023-01-07T20:31:34.342Z,100.00
2023-01-07T20:33:36.299Z,100.00
2023-01-07T20:35:39.921Z,100.00
2023-01-07T20:37:42.014Z,100.00
2023-01-07T20:39:44.053Z,100.00
2023-01-07T20:41:45.983Z,100.00
2023-01-07T20:43:53.281Z,100.00
2023-01-07T20:45:59.119Z,100.00
2023-01-07T20:48:04.352Z,100.00
2023-01-07T20:50:10.273Z,100.00
2023-01-07T20:52:12.341Z,100.00
2023-01-07T20:54:15.391Z,100.00
2023-01-07T20:56:19.831Z,100.00
2023-01-07T20:58:21.899Z,100.00
2023-01-07T21:00:24.149Z,100.00
2023-01-07T21:02:26.215Z,100.00
2023-01-07T21:04:30.227Z,100.00
2023-01-07T21:06:32.336Z,100.00
2023-01-07T21:08:35.570Z,100.00
2023-01-07T21:10:38.177Z,100.00
2023-01-07T21:12:40.212Z,100.00
2023-01-07T21:14:42.107Z,100.00
2023-01-07T21:16:44.652Z,100.00
2023-01-07T21:18:47.707Z,100.00
2023-01-07T21:20:49.654Z,100.00
2023-01-07T21:22:51.644Z,100.00
2023-01-07T21:24:54.530Z,100.00
2023-01-07T21:26:56.483Z,100.00
2023-01-07T21:28:59.260Z,100.00
2023-01-07T21:31:09.056Z,100.00
2023-01-07T21:33:11.218Z,100.00
2023-01-07T21:35:13.998Z,100.00
2023-01-07T21:37:15.878Z,100.00
2023-01-07T21:39:20.678Z,100.00
2023-01-07T21:41:23.873Z,100.00
2023-01-07T21:43:25.920Z,100.00
2023-01-07T21:45:30.235Z,100.00
2023-01-07T21:47:32.701Z,100.00
2023-01-07T21:49:34.612Z,100.00
2023-01-07T21:51:38.806Z,100.00
2023-01-07T21:53:44.582Z,100.00
2023-01-07T21:55:49.444Z,100.00
2023-01-07T21:57:51.349Z,100.00
2023-01-07T22:00:26.998Z,100.00
2023-01-07T22:02:48.210Z,100.00
2023-01-07T22:04:53.886Z,100.00
2023-01-07T22:07:01.256Z,100.00
2023-01-07T22:09:36.482Z,100.00
2023-01-07T22:14:03.906Z,100.00
2023-01-07T22:16:19.020Z,100.00
2023-01-07T22:18:37.657Z,100.00
2023-01-07T22:21:06.311Z,100.00
2023-01-07T22:23:17.182Z,100.00
2023-01-07T22:25:26.774Z,100.00
2023-01-07T22:27:36.824Z,100.00
2023-01-07T22:29:49.380Z,100.00
2023-01-07T22:32:00.396Z,100.00
2023-01-07T22:34:05.429Z,100.00
2023-01-07T22:36:17.583Z,100.00
2023-01-07T22:38:38.417Z,100.00
2023-01-07T22:41:00.046Z,100.00
2023-01-07T22:43:08.214Z,100.00
2023-01-07T22:45:30.982Z,100.00
2023-01-07T22:47:40.637Z,100.00
2023-01-07T22:49:44.955Z,100.00
2023-01-07T22:51:52.936Z,100.00
2023-01-07T22:53:56.943Z,100.00
2023-01-07T22:56:01.336Z,100.00
2023-01-07T22:58:10.915Z,100.00
2023-01-07T23:00:45.025Z,100.00
2023-01-07T23:03:07.201Z,100.00
2023-01-07T23:05:25.514Z,100.00
2023-01-07T23:07:38.312Z,100.00
2023-01-07T23:09:44.328Z,100.00
2023-01-07T23:11:49.275Z,100.00
2023-01-07T23:13:51.448Z,100.00
2023-01-07T23:16:07.867Z,100.00
2023-01-07T23:18:11.571Z,100.00
2023-01-07T23:20:13.497Z,100.00
2023-01-07T23:22:15.367Z,100.00
2023-01-07T23:24:17.709Z,100.00
2023-01-07T23:26:19.652Z,100.00
2023-01-07T23:28:21.576Z,100.00
2023-01-07T23:30:27.494Z,100.00
2023-01-07T23:32:31.746Z,100.00
2023-01-07T23:34:37.625Z,100.00
2023-01-07T23:36:53.364Z,100.00
2023-01-07T23:38:56.493Z,100.00
2023-01-07T23:41:28.305Z,100.00
2023-01-07T23:43:30.632Z,100.00
2023-01-07T23:45:32.865Z,100.00
2023-01-07T23:47:34.945Z,100.00
2023-01-07T23:50:10.745Z,100.00
2023-01-07T23:52:50.330Z,100.00
2023-01-07T23:55:01.199Z,100.00
2023-01-07T23:57:03.381Z,100.00
2023-01-07T23:59:06.770Z,100.00
